sensor_id;sensor_type;location;lat;lon;timestamp;temperature;humidity
52621;DHT22;38515;53.160;6.990;2023-07-31T00:00:34;15.70;99.90
52621;DHT22;38515;53.160;6.990;2023-07-31T00:03:00;15.70;99.90
52621;DHT22;38515;53.160;6.990;2023-07-31T00:05:26;15.70;99.90
52621;DHT22;38515;53.160;6.990;2023-07-31T00:07:52;15.60;99.90
52621;DHT22;38515;53.160;6.990;2023-07-31T00:10:19;15.60;99.90
52621;DHT22;38515;53.160;6.990;2023-07-31T00:12:45;15.60;99.90
52621;DHT22;38515;53.160;6.990;2023-07-31T00:15:12;15.60;99.90
52621;DHT22;38515;53.160;6.990;2023-07-31T00:17:38;15.60;99.90
52621;DHT22;38515;53.160;6.990;2023-07-31T00:20:04;15.60;99.90
52621;DHT22;38515;53.160;6.990;2023-07-31T00:22:30;15.50;99.90
52621;DHT22;38515;53.160;6.990;2023-07-31T00:24:56;15.50;99.90
52621;DHT22;38515;53.160;6.990;2023-07-31T00:27:23;15.50;99.90
52621;DHT22;38515;53.160;6.990;2023-07-31T00:29:49;15.50;99.90
52621;DHT22;38515;53.160;6.990;2023-07-31T00:32:15;15.50;99.90
52621;DHT22;38515;53.160;6.990;2023-07-31T00:34:41;15.50;99.90
52621;DHT22;38515;53.160;6.990;2023-07-31T00:37:07;15.40;99.90
52621;DHT22;38515;53.160;6.990;2023-07-31T00:39:34;15.30;99.90
52621;DHT22;38515;53.160;6.990;2023-07-31T00:42:00;15.40;99.90
52621;DHT22;38515;53.160;6.990;2023-07-31T00:44:26;15.30;99.90
52621;DHT22;38515;53.160;6.990;2023-07-31T00:46:52;15.30;99.90
52621;DHT22;38515;53.160;6.990;2023-07-31T00:49:18;15.30;99.90
52621;DHT22;38515;53.160;6.990;2023-07-31T00:51:44;15.30;99.90
52621;DHT22;38515;53.160;6.990;2023-07-31T00:54:11;15.30;99.90
52621;DHT22;38515;53.160;6.990;2023-07-31T00:56:37;15.20;99.90
52621;DHT22;38515;53.160;6.990;2023-07-31T00:59:05;15.20;99.90
52621;DHT22;38515;53.160;6.990;2023-07-31T01:01:31;15.20;99.90
52621;DHT22;38515;53.160;6.990;2023-07-31T01:03:57;15.20;99.90
52621;DHT22;38515;53.160;6.990;2023-07-31T01:09:09;15.10;99.90
52621;DHT22;38515;53.160;6.990;2023-07-31T01:11:46;15.10;99.90
52621;DHT22;38515;53.160;6.990;2023-07-31T01:14:14;15.10;99.90
52621;DHT22;38515;53.160;6.990;2023-07-31T01:16:40;15.10;99.90
52621;DHT22;38515;53.160;6.990;2023-07-31T01:19:06;15.10;99.90
52621;DHT22;38515;53.160;6.990;2023-07-31T01:27:50;15.10;99.90
52621;DHT22;38515;53.160;6.990;2023-07-31T01:30:22;15.00;99.90
52621;DHT22;38515;53.160;6.990;2023-07-31T01:32:52;15.10;99.90
52621;DHT22;38515;53.160;6.990;2023-07-31T01:35:20;15.10;99.90
52621;DHT22;38515;53.160;6.990;2023-07-31T01:37:48;15.10;99.90
52621;DHT22;38515;53.160;6.990;2023-07-31T01:40:14;15.10;99.90
52621;DHT22;38515;53.160;6.990;2023-07-31T01:42:46;15.10;99.90
52621;DHT22;38515;53.160;6.990;2023-07-31T01:45:12;15.00;99.90
52621;DHT22;38515;53.160;6.990;2023-07-31T01:47:38;15.00;99.90
52621;DHT22;38515;53.160;6.990;2023-07-31T01:50:04;15.00;99.90
52621;DHT22;38515;53.160;6.990;2023-07-31T01:52:30;15.00;99.90
52621;DHT22;38515;53.160;6.990;2023-07-31T01:54:56;15.00;99.90
52621;DHT22;38515;53.160;6.990;2023-07-31T01:57:22;15.10;99.90
52621;DHT22;38515;53.160;6.990;2023-07-31T01:59:48;15.10;99.90
52621;DHT22;38515;53.160;6.990;2023-07-31T02:02:14;15.10;99.90
52621;DHT22;38515;53.160;6.990;2023-07-31T02:04:39;15.00;99.90
52621;DHT22;38515;53.160;6.990;2023-07-31T02:07:06;15.00;99.90
52621;DHT22;38515;53.160;6.990;2023-07-31T02:09:32;15.10;99.90
52621;DHT22;38515;53.160;6.990;2023-07-31T02:11:57;15.00;99.90
52621;DHT22;38515;53.160;6.990;2023-07-31T02:14:23;15.00;99.90
52621;DHT22;38515;53.160;6.990;2023-07-31T02:16:50;15.00;99.90
52621;DHT22;38515;53.160;6.990;2023-07-31T02:19:15;15.00;99.90
52621;DHT22;38515;53.160;6.990;2023-07-31T02:21:41;15.00;99.90
52621;DHT22;38515;53.160;6.990;2023-07-31T02:24:07;15.00;99.90
52621;DHT22;38515;53.160;6.990;2023-07-31T02:26:33;15.00;99.90
52621;DHT22;38515;53.160;6.990;2023-07-31T02:28:59;15.00;99.90
52621;DHT22;38515;53.160;6.990;2023-07-31T02:31:25;15.00;99.90
52621;DHT22;38515;53.160;6.990;2023-07-31T02:33:51;15.00;99.90
52621;DHT22;38515;53.160;6.990;2023-07-31T02:36:17;15.00;99.90
52621;DHT22;38515;53.160;6.990;2023-07-31T02:38:43;15.00;99.90
52621;DHT22;38515;53.160;6.990;2023-07-31T02:41:09;15.00;99.90
52621;DHT22;38515;53.160;6.990;2023-07-31T02:43:34;15.00;99.90
52621;DHT22;38515;53.160;6.990;2023-07-31T02:46:00;15.00;99.90
52621;DHT22;38515;53.160;6.990;2023-07-31T02:48:26;15.00;99.90
52621;DHT22;38515;53.160;6.990;2023-07-31T02:50:53;15.00;99.90
52621;DHT22;38515;53.160;6.990;2023-07-31T02:53:19;15.00;99.90
52621;DHT22;38515;53.160;6.990;2023-07-31T02:55:44;15.00;99.90
52621;DHT22;38515;53.160;6.990;2023-07-31T02:58:10;15.00;99.90
52621;DHT22;38515;53.160;6.990;2023-07-31T03:00:42;15.00;99.90
52621;DHT22;38515;53.160;6.990;2023-07-31T03:03:08;15.00;99.90
52621;DHT22;38515;53.160;6.990;2023-07-31T03:05:34;15.00;99.90
52621;DHT22;38515;53.160;6.990;2023-07-31T03:08:00;15.00;99.90
52621;DHT22;38515;53.160;6.990;2023-07-31T03:10:25;15.00;99.90
52621;DHT22;38515;53.160;6.990;2023-07-31T03:12:51;15.00;99.90
52621;DHT22;38515;53.160;6.990;2023-07-31T03:15:17;15.10;99.90
52621;DHT22;38515;53.160;6.990;2023-07-31T03:17:43;15.00;99.90
52621;DHT22;38515;53.160;6.990;2023-07-31T03:20:09;15.00;99.90
52621;DHT22;38515;53.160;6.990;2023-07-31T03:22:35;15.00;99.90
52621;DHT22;38515;53.160;6.990;2023-07-31T03:25:02;14.60;99.90
52621;DHT22;38515;53.160;6.990;2023-07-31T03:27:28;15.00;99.90
52621;DHT22;38515;53.160;6.990;2023-07-31T03:29:54;15.10;99.90
52621;DHT22;38515;53.160;6.990;2023-07-31T03:32:19;15.00;99.90
52621;DHT22;38515;53.160;6.990;2023-07-31T03:34:45;15.00;99.90
52621;DHT22;38515;53.160;6.990;2023-07-31T03:37:11;15.10;99.90
52621;DHT22;38515;53.160;6.990;2023-07-31T03:39:37;15.00;99.90
52621;DHT22;38515;53.160;6.990;2023-07-31T03:42:04;15.00;99.90
52621;DHT22;38515;53.160;6.990;2023-07-31T03:44:30;15.10;99.90
52621;DHT22;38515;53.160;6.990;2023-07-31T03:46:56;15.10;99.90
52621;DHT22;38515;53.160;6.990;2023-07-31T03:49:22;15.00;99.90
52621;DHT22;38515;53.160;6.990;2023-07-31T03:51:47;15.10;99.90
52621;DHT22;38515;53.160;6.990;2023-07-31T03:54:13;15.10;99.90
52621;DHT22;38515;53.160;6.990;2023-07-31T03:56:39;15.10;99.90
52621;DHT22;38515;53.160;6.990;2023-07-31T03:59:05;15.10;99.90
52621;DHT22;38515;53.160;6.990;2023-07-31T04:01:31;15.10;99.90
52621;DHT22;38515;53.160;6.990;2023-07-31T04:03:57;15.10;99.90
52621;DHT22;38515;53.160;6.990;2023-07-31T04:06:23;15.10;99.90
52621;DHT22;38515;53.160;6.990;2023-07-31T04:08:49;15.20;99.90
52621;DHT22;38515;53.160;6.990;2023-07-31T04:11:15;15.20;99.90
52621;DHT22;38515;53.160;6.990;2023-07-31T04:13:41;15.10;99.90
52621;DHT22;38515;53.160;6.990;2023-07-31T04:16:10;15.20;99.90
52621;DHT22;38515;53.160;6.990;2023-07-31T04:18:37;15.20;99.90
52621;DHT22;38515;53.160;6.990;2023-07-31T04:21:03;15.10;99.90
52621;DHT22;38515;53.160;6.990;2023-07-31T04:23:29;15.20;99.90
52621;DHT22;38515;53.160;6.990;2023-07-31T04:25:58;15.20;99.90
52621;DHT22;38515;53.160;6.990;2023-07-31T04:28:23;15.30;99.90
52621;DHT22;38515;53.160;6.990;2023-07-31T04:30:51;15.30;99.90
52621;DHT22;38515;53.160;6.990;2023-07-31T04:33:18;15.20;99.90
52621;DHT22;38515;53.160;6.990;2023-07-31T04:35:53;15.40;99.90
52621;DHT22;38515;53.160;6.990;2023-07-31T04:38:19;15.30;99.90
52621;DHT22;38515;53.160;6.990;2023-07-31T04:40:46;15.20;99.90
52621;DHT22;38515;53.160;6.990;2023-07-31T04:43:12;15.30;99.90
52621;DHT22;38515;53.160;6.990;2023-07-31T04:45:38;15.40;99.90
52621;DHT22;38515;53.160;6.990;2023-07-31T04:48:04;15.40;99.90
52621;DHT22;38515;53.160;6.990;2023-07-31T04:50:29;15.30;99.90
52621;DHT22;38515;53.160;6.990;2023-07-31T04:52:56;15.40;99.90
52621;DHT22;38515;53.160;6.990;2023-07-31T04:55:22;15.40;99.90
52621;DHT22;38515;53.160;6.990;2023-07-31T04:57:48;15.40;99.90
52621;DHT22;38515;53.160;6.990;2023-07-31T05:00:14;15.40;99.90
52621;DHT22;38515;53.160;6.990;2023-07-31T05:02:39;15.40;99.90
52621;DHT22;38515;53.160;6.990;2023-07-31T05:05:05;15.40;99.90
52621;DHT22;38515;53.160;6.990;2023-07-31T05:07:31;15.40;99.90
52621;DHT22;38515;53.160;6.990;2023-07-31T05:09:57;15.40;99.90
52621;DHT22;38515;53.160;6.990;2023-07-31T05:12:23;15.50;99.90
52621;DHT22;38515;53.160;6.990;2023-07-31T05:14:49;15.40;99.90
52621;DHT22;38515;53.160;6.990;2023-07-31T05:17:15;15.40;99.90
52621;DHT22;38515;53.160;6.990;2023-07-31T05:19:41;15.40;99.90
52621;DHT22;38515;53.160;6.990;2023-07-31T05:22:07;15.40;99.90
52621;DHT22;38515;53.160;6.990;2023-07-31T05:24:33;15.50;99.90
52621;DHT22;38515;53.160;6.990;2023-07-31T05:26:59;15.50;99.90
52621;DHT22;38515;53.160;6.990;2023-07-31T05:29:25;15.50;99.90
52621;DHT22;38515;53.160;6.990;2023-07-31T05:31:51;15.40;99.90
52621;DHT22;38515;53.160;6.990;2023-07-31T05:34:17;15.50;99.90
52621;DHT22;38515;53.160;6.990;2023-07-31T05:36:43;15.40;99.90
52621;DHT22;38515;53.160;6.990;2023-07-31T05:39:09;15.50;99.90
52621;DHT22;38515;53.160;6.990;2023-07-31T05:41:35;15.40;99.90
52621;DHT22;38515;53.160;6.990;2023-07-31T05:44:01;15.50;99.90
52621;DHT22;38515;53.160;6.990;2023-07-31T05:46:27;15.50;99.90
52621;DHT22;38515;53.160;6.990;2023-07-31T05:48:53;15.60;99.90
52621;DHT22;38515;53.160;6.990;2023-07-31T05:51:19;15.60;99.90
52621;DHT22;38515;53.160;6.990;2023-07-31T05:53:44;15.60;99.90
52621;DHT22;38515;53.160;6.990;2023-07-31T05:56:11;15.50;99.90
52621;DHT22;38515;53.160;6.990;2023-07-31T05:58:36;15.50;99.90
52621;DHT22;38515;53.160;6.990;2023-07-31T06:01:02;15.50;99.90
52621;DHT22;38515;53.160;6.990;2023-07-31T06:03:28;15.60;99.90
52621;DHT22;38515;53.160;6.990;2023-07-31T06:05:54;15.60;99.90
52621;DHT22;38515;53.160;6.990;2023-07-31T06:08:20;15.70;99.90
52621;DHT22;38515;53.160;6.990;2023-07-31T06:10:45;15.80;99.90
52621;DHT22;38515;53.160;6.990;2023-07-31T06:13:11;15.60;99.90
52621;DHT22;38515;53.160;6.990;2023-07-31T06:15:37;15.60;99.90
52621;DHT22;38515;53.160;6.990;2023-07-31T06:18:03;15.80;99.90
52621;DHT22;38515;53.160;6.990;2023-07-31T06:20:33;15.60;99.90
52621;DHT22;38515;53.160;6.990;2023-07-31T06:22:59;15.60;99.90
52621;DHT22;38515;53.160;6.990;2023-07-31T06:25:25;15.60;99.90
52621;DHT22;38515;53.160;6.990;2023-07-31T06:27:51;15.80;99.90
52621;DHT22;38515;53.160;6.990;2023-07-31T06:30:17;15.80;99.90
52621;DHT22;38515;53.160;6.990;2023-07-31T06:32:43;15.70;99.90
52621;DHT22;38515;53.160;6.990;2023-07-31T06:35:09;15.70;99.90
52621;DHT22;38515;53.160;6.990;2023-07-31T06:37:35;15.80;99.90
52621;DHT22;38515;53.160;6.990;2023-07-31T06:40:01;16.00;99.90
52621;DHT22;38515;53.160;6.990;2023-07-31T06:42:27;15.90;99.90
52621;DHT22;38515;53.160;6.990;2023-07-31T06:44:53;16.00;99.90
52621;DHT22;38515;53.160;6.990;2023-07-31T06:47:18;16.10;99.90
52621;DHT22;38515;53.160;6.990;2023-07-31T06:49:45;15.90;99.90
52621;DHT22;38515;53.160;6.990;2023-07-31T06:52:11;16.00;99.90
52621;DHT22;38515;53.160;6.990;2023-07-31T06:54:37;16.40;99.90
52621;DHT22;38515;53.160;6.990;2023-07-31T06:57:03;16.70;99.90
52621;DHT22;38515;53.160;6.990;2023-07-31T06:59:29;16.20;99.90
52621;DHT22;38515;53.160;6.990;2023-07-31T07:01:55;16.70;99.90
52621;DHT22;38515;53.160;6.990;2023-07-31T07:04:21;16.70;99.90
52621;DHT22;38515;53.160;6.990;2023-07-31T07:06:47;16.80;99.90
52621;DHT22;38515;53.160;6.990;2023-07-31T07:09:13;16.40;99.90
52621;DHT22;38515;53.160;6.990;2023-07-31T07:11:39;16.60;99.90
52621;DHT22;38515;53.160;6.990;2023-07-31T07:14:05;17.00;99.90
52621;DHT22;38515;53.160;6.990;2023-07-31T07:16:31;16.70;99.90
52621;DHT22;38515;53.160;6.990;2023-07-31T07:18:57;16.80;99.90
52621;DHT22;38515;53.160;6.990;2023-07-31T07:21:23;16.90;99.90
52621;DHT22;38515;53.160;6.990;2023-07-31T07:23:49;16.80;99.90
52621;DHT22;38515;53.160;6.990;2023-07-31T07:26:15;17.20;99.90
52621;DHT22;38515;53.160;6.990;2023-07-31T07:28:41;16.90;99.90
52621;DHT22;38515;53.160;6.990;2023-07-31T07:31:07;17.00;99.90
52621;DHT22;38515;53.160;6.990;2023-07-31T07:33:32;17.10;99.90
52621;DHT22;38515;53.160;6.990;2023-07-31T07:36:02;16.70;99.90
52621;DHT22;38515;53.160;6.990;2023-07-31T07:38:28;17.20;99.90
52621;DHT22;38515;53.160;6.990;2023-07-31T07:40:54;17.20;99.90
52621;DHT22;38515;53.160;6.990;2023-07-31T07:43:20;17.00;99.90
52621;DHT22;38515;53.160;6.990;2023-07-31T07:45:46;17.20;99.90
52621;DHT22;38515;53.160;6.990;2023-07-31T07:48:11;16.90;99.90
52621;DHT22;38515;53.160;6.990;2023-07-31T07:50:38;17.20;99.90
52621;DHT22;38515;53.160;6.990;2023-07-31T07:53:05;16.70;99.90
52621;DHT22;38515;53.160;6.990;2023-07-31T07:55:31;16.90;99.90
52621;DHT22;38515;53.160;6.990;2023-07-31T07:57:56;17.20;99.90
52621;DHT22;38515;53.160;6.990;2023-07-31T08:00:22;16.80;99.90
52621;DHT22;38515;53.160;6.990;2023-07-31T08:02:48;17.40;99.90
52621;DHT22;38515;53.160;6.990;2023-07-31T08:05:14;17.20;99.90
52621;DHT22;38515;53.160;6.990;2023-07-31T08:07:40;17.20;99.90
52621;DHT22;38515;53.160;6.990;2023-07-31T08:10:06;17.00;99.90
52621;DHT22;38515;53.160;6.990;2023-07-31T08:12:32;17.50;99.90
52621;DHT22;38515;53.160;6.990;2023-07-31T08:14:58;17.20;99.90
52621;DHT22;38515;53.160;6.990;2023-07-31T08:17:25;17.50;99.90
52621;DHT22;38515;53.160;6.990;2023-07-31T08:19:51;17.40;99.90
52621;DHT22;38515;53.160;6.990;2023-07-31T08:22:17;17.50;99.90
52621;DHT22;38515;53.160;6.990;2023-07-31T08:24:43;16.90;99.90
52621;DHT22;38515;53.160;6.990;2023-07-31T08:27:09;17.00;99.90
52621;DHT22;38515;53.160;6.990;2023-07-31T08:29:34;16.90;99.90
52621;DHT22;38515;53.160;6.990;2023-07-31T08:32:00;17.10;99.90
52621;DHT22;38515;53.160;6.990;2023-07-31T08:34:26;17.40;99.90
52621;DHT22;38515;53.160;6.990;2023-07-31T08:36:52;17.00;99.90
52621;DHT22;38515;53.160;6.990;2023-07-31T08:39:18;17.40;99.90
52621;DHT22;38515;53.160;6.990;2023-07-31T08:41:44;17.50;99.90
52621;DHT22;38515;53.160;6.990;2023-07-31T08:44:10;16.90;99.90
52621;DHT22;38515;53.160;6.990;2023-07-31T08:46:38;17.30;99.90
52621;DHT22;38515;53.160;6.990;2023-07-31T08:49:05;17.00;99.90
52621;DHT22;38515;53.160;6.990;2023-07-31T08:51:35;17.50;99.90
52621;DHT22;38515;53.160;6.990;2023-07-31T08:54:02;17.70;99.90
52621;DHT22;38515;53.160;6.990;2023-07-31T08:56:31;17.10;99.90
52621;DHT22;38515;53.160;6.990;2023-07-31T08:58:58;17.20;99.90
52621;DHT22;38515;53.160;6.990;2023-07-31T09:01:25;17.40;99.90
52621;DHT22;38515;53.160;6.990;2023-07-31T09:03:52;17.80;99.90
52621;DHT22;38515;53.160;6.990;2023-07-31T09:06:20;17.80;99.90
52621;DHT22;38515;53.160;6.990;2023-07-31T09:08:50;17.80;99.90
52621;DHT22;38515;53.160;6.990;2023-07-31T09:11:16;17.70;99.90
52621;DHT22;38515;53.160;6.990;2023-07-31T09:13:43;17.50;99.90
52621;DHT22;38515;53.160;6.990;2023-07-31T09:16:09;17.20;99.90
52621;DHT22;38515;53.160;6.990;2023-07-31T09:19:08;17.30;99.90
52621;DHT22;38515;53.160;6.990;2023-07-31T09:21:33;17.50;99.90
52621;DHT22;38515;53.160;6.990;2023-07-31T09:24:08;17.70;99.90
52621;DHT22;38515;53.160;6.990;2023-07-31T09:26:35;17.40;99.90
52621;DHT22;38515;53.160;6.990;2023-07-31T09:29:04;17.80;99.90
52621;DHT22;38515;53.160;6.990;2023-07-31T09:31:41;17.70;99.90
52621;DHT22;38515;53.160;6.990;2023-07-31T09:34:08;17.30;99.90
52621;DHT22;38515;53.160;6.990;2023-07-31T09:36:43;17.50;99.90
52621;DHT22;38515;53.160;6.990;2023-07-31T09:39:10;17.60;99.90
52621;DHT22;38515;53.160;6.990;2023-07-31T09:41:42;17.50;99.90
52621;DHT22;38515;53.160;6.990;2023-07-31T09:44:08;17.50;99.90
52621;DHT22;38515;53.160;6.990;2023-07-31T09:46:37;17.50;99.90
52621;DHT22;38515;53.160;6.990;2023-07-31T09:49:15;17.70;99.90
52621;DHT22;38515;53.160;6.990;2023-07-31T09:51:42;17.50;99.90
52621;DHT22;38515;53.160;6.990;2023-07-31T09:54:16;17.70;99.90
52621;DHT22;38515;53.160;6.990;2023-07-31T09:56:49;17.70;99.90
52621;DHT22;38515;53.160;6.990;2023-07-31T09:59:17;17.50;99.90
52621;DHT22;38515;53.160;6.990;2023-07-31T10:01:45;17.70;99.90
52621;DHT22;38515;53.160;6.990;2023-07-31T10:04:13;17.70;99.90
52621;DHT22;38515;53.160;6.990;2023-07-31T10:06:41;17.80;99.90
52621;DHT22;38515;53.160;6.990;2023-07-31T10:09:12;17.80;99.90
52621;DHT22;38515;53.160;6.990;2023-07-31T10:11:51;17.70;99.90
52621;DHT22;38515;53.160;6.990;2023-07-31T10:14:21;17.80;99.90
52621;DHT22;38515;53.160;6.990;2023-07-31T10:16:49;18.10;99.90
52621;DHT22;38515;53.160;6.990;2023-07-31T10:19:17;18.00;99.90
52621;DHT22;38515;53.160;6.990;2023-07-31T10:21:46;18.40;99.90
52621;DHT22;38515;53.160;6.990;2023-07-31T10:24:15;18.30;99.90
52621;DHT22;38515;53.160;6.990;2023-07-31T10:26:41;18.40;99.90
52621;DHT22;38515;53.160;6.990;2023-07-31T10:29:09;19.00;99.90
52621;DHT22;38515;53.160;6.990;2023-07-31T10:31:35;18.60;99.90
52621;DHT22;38515;53.160;6.990;2023-07-31T10:34:02;18.70;99.90
52621;DHT22;38515;53.160;6.990;2023-07-31T10:36:28;19.00;99.90
52621;DHT22;38515;53.160;6.990;2023-07-31T10:38:56;18.90;99.90
52621;DHT22;38515;53.160;6.990;2023-07-31T10:41:31;18.90;99.90
52621;DHT22;38515;53.160;6.990;2023-07-31T10:44:01;18.80;99.90
52621;DHT22;38515;53.160;6.990;2023-07-31T10:46:36;19.00;99.90
52621;DHT22;38515;53.160;6.990;2023-07-31T10:49:03;18.70;99.90
52621;DHT22;38515;53.160;6.990;2023-07-31T10:51:35;19.00;99.90
52621;DHT22;38515;53.160;6.990;2023-07-31T10:54:16;18.60;99.90
52621;DHT22;38515;53.160;6.990;2023-07-31T10:56:46;18.90;99.90
52621;DHT22;38515;53.160;6.990;2023-07-31T10:59:15;19.10;99.90
52621;DHT22;38515;53.160;6.990;2023-07-31T11:01:54;19.10;99.90
52621;DHT22;38515;53.160;6.990;2023-07-31T11:04:26;18.80;99.90
52621;DHT22;38515;53.160;6.990;2023-07-31T11:07:00;18.60;99.90
52621;DHT22;38515;53.160;6.990;2023-07-31T11:09:32;18.70;99.90
52621;DHT22;38515;53.160;6.990;2023-07-31T11:12:04;18.50;99.90
52621;DHT22;38515;53.160;6.990;2023-07-31T11:14:30;19.20;99.90
52621;DHT22;38515;53.160;6.990;2023-07-31T11:16:56;19.30;99.90
52621;DHT22;38515;53.160;6.990;2023-07-31T11:19:25;19.40;99.90
52621;DHT22;38515;53.160;6.990;2023-07-31T11:21:52;18.70;99.90
52621;DHT22;38515;53.160;6.990;2023-07-31T11:24:19;19.30;99.90
52621;DHT22;38515;53.160;6.990;2023-07-31T11:27:07;18.90;99.90
52621;DHT22;38515;53.160;6.990;2023-07-31T11:29:33;19.10;99.90
52621;DHT22;38515;53.160;6.990;2023-07-31T11:31:59;19.10;99.90
52621;DHT22;38515;53.160;6.990;2023-07-31T11:34:25;19.00;99.90
52621;DHT22;38515;53.160;6.990;2023-07-31T11:36:54;19.10;99.90
52621;DHT22;38515;53.160;6.990;2023-07-31T11:39:21;19.00;99.90
52621;DHT22;38515;53.160;6.990;2023-07-31T11:41:50;18.80;99.90
52621;DHT22;38515;53.160;6.990;2023-07-31T11:44:16;18.70;99.90
52621;DHT22;38515;53.160;6.990;2023-07-31T11:46:42;18.60;99.90
52621;DHT22;38515;53.160;6.990;2023-07-31T11:49:09;18.50;99.90
52621;DHT22;38515;53.160;6.990;2023-07-31T11:51:34;18.60;99.90
52621;DHT22;38515;53.160;6.990;2023-07-31T11:54:01;18.60;99.90
52621;DHT22;38515;53.160;6.990;2023-07-31T11:56:28;18.60;99.90
52621;DHT22;38515;53.160;6.990;2023-07-31T11:58:58;18.50;99.90
52621;DHT22;38515;53.160;6.990;2023-07-31T12:01:27;18.50;99.90
52621;DHT22;38515;53.160;6.990;2023-07-31T12:03:54;18.50;99.90
52621;DHT22;38515;53.160;6.990;2023-07-31T12:06:20;18.50;99.90
52621;DHT22;38515;53.160;6.990;2023-07-31T12:08:47;18.50;99.90
52621;DHT22;38515;53.160;6.990;2023-07-31T12:11:13;18.50;99.90
52621;DHT22;38515;53.160;6.990;2023-07-31T12:13:40;18.50;99.90
52621;DHT22;38515;53.160;6.990;2023-07-31T12:16:06;19.00;99.90
52621;DHT22;38515;53.160;6.990;2023-07-31T12:18:39;18.80;99.90
52621;DHT22;38515;53.160;6.990;2023-07-31T12:21:09;18.50;99.90
52621;DHT22;38515;53.160;6.990;2023-07-31T12:23:37;19.20;99.90
52621;DHT22;38515;53.160;6.990;2023-07-31T12:26:05;19.40;99.90
52621;DHT22;38515;53.160;6.990;2023-07-31T12:28:44;19.40;99.90
52621;DHT22;38515;53.160;6.990;2023-07-31T12:31:16;19.60;99.90
52621;DHT22;38515;53.160;6.990;2023-07-31T12:33:45;19.60;99.90
52621;DHT22;38515;53.160;6.990;2023-07-31T12:36:17;19.60;99.90
52621;DHT22;38515;53.160;6.990;2023-07-31T12:38:43;19.30;99.90
52621;DHT22;38515;53.160;6.990;2023-07-31T12:41:10;19.00;99.90
52621;DHT22;38515;53.160;6.990;2023-07-31T12:43:39;19.60;99.90
52621;DHT22;38515;53.160;6.990;2023-07-31T12:46:06;19.60;99.90
52621;DHT22;38515;53.160;6.990;2023-07-31T12:48:33;19.50;99.90
52621;DHT22;38515;53.160;6.990;2023-07-31T12:51:00;19.10;99.90
52621;DHT22;38515;53.160;6.990;2023-07-31T12:53:26;18.90;99.90
52621;DHT22;38515;53.160;6.990;2023-07-31T12:55:55;18.80;99.90
52621;DHT22;38515;53.160;6.990;2023-07-31T12:58:22;18.60;99.90
52621;DHT22;38515;53.160;6.990;2023-07-31T13:00:48;18.50;99.90
52621;DHT22;38515;53.160;6.990;2023-07-31T13:03:13;18.40;99.90
52621;DHT22;38515;53.160;6.990;2023-07-31T13:05:39;18.60;99.90
52621;DHT22;38515;53.160;6.990;2023-07-31T13:08:05;18.60;99.90
52621;DHT22;38515;53.160;6.990;2023-07-31T13:10:31;18.50;99.90
52621;DHT22;38515;53.160;6.990;2023-07-31T13:12:57;18.50;99.90
52621;DHT22;38515;53.160;6.990;2023-07-31T13:15:23;18.40;99.90
52621;DHT22;38515;53.160;6.990;2023-07-31T13:17:49;18.30;99.90
52621;DHT22;38515;53.160;6.990;2023-07-31T13:20:15;18.30;99.90
52621;DHT22;38515;53.160;6.990;2023-07-31T13:22:41;18.30;99.90
52621;DHT22;38515;53.160;6.990;2023-07-31T13:25:10;18.20;99.90
52621;DHT22;38515;53.160;6.990;2023-07-31T13:27:36;18.20;99.90
52621;DHT22;38515;53.160;6.990;2023-07-31T13:30:02;18.00;99.90
52621;DHT22;38515;53.160;6.990;2023-07-31T13:32:29;18.00;99.90
52621;DHT22;38515;53.160;6.990;2023-07-31T13:34:54;18.10;99.90
52621;DHT22;38515;53.160;6.990;2023-07-31T13:37:20;18.10;99.90
52621;DHT22;38515;53.160;6.990;2023-07-31T13:39:49;17.90;99.90
52621;DHT22;38515;53.160;6.990;2023-07-31T13:42:15;18.10;99.90
52621;DHT22;38515;53.160;6.990;2023-07-31T13:44:43;18.10;99.90
52621;DHT22;38515;53.160;6.990;2023-07-31T13:47:09;18.20;99.90
52621;DHT22;38515;53.160;6.990;2023-07-31T13:49:36;18.30;99.90
52621;DHT22;38515;53.160;6.990;2023-07-31T13:52:02;18.80;99.90
52621;DHT22;38515;53.160;6.990;2023-07-31T13:54:29;18.70;99.90
52621;DHT22;38515;53.160;6.990;2023-07-31T13:56:55;19.00;99.90
52621;DHT22;38515;53.160;6.990;2023-07-31T13:59:20;18.70;99.90
52621;DHT22;38515;53.160;6.990;2023-07-31T14:01:47;19.30;99.90
52621;DHT22;38515;53.160;6.990;2023-07-31T14:04:13;19.20;99.90
52621;DHT22;38515;53.160;6.990;2023-07-31T14:06:39;19.00;99.90
52621;DHT22;38515;53.160;6.990;2023-07-31T14:09:05;19.10;99.90
52621;DHT22;38515;53.160;6.990;2023-07-31T14:11:32;19.00;99.90
52621;DHT22;38515;53.160;6.990;2023-07-31T14:13:58;19.40;99.90
52621;DHT22;38515;53.160;6.990;2023-07-31T14:16:27;19.00;99.90
52621;DHT22;38515;53.160;6.990;2023-07-31T14:18:54;19.10;99.90
52621;DHT22;38515;53.160;6.990;2023-07-31T14:21:20;19.10;99.90
52621;DHT22;38515;53.160;6.990;2023-07-31T14:23:46;19.90;99.90
52621;DHT22;38515;53.160;6.990;2023-07-31T14:26:12;19.10;99.90
52621;DHT22;38515;53.160;6.990;2023-07-31T14:28:38;19.40;99.90
52621;DHT22;38515;53.160;6.990;2023-07-31T14:31:04;19.90;99.90
52621;DHT22;38515;53.160;6.990;2023-07-31T14:33:30;19.30;99.90
52621;DHT22;38515;53.160;6.990;2023-07-31T14:35:56;19.50;99.90
52621;DHT22;38515;53.160;6.990;2023-07-31T14:38:22;19.60;99.90
52621;DHT22;38515;53.160;6.990;2023-07-31T14:40:48;19.60;99.90
52621;DHT22;38515;53.160;6.990;2023-07-31T14:43:15;19.20;99.90
52621;DHT22;38515;53.160;6.990;2023-07-31T14:45:41;19.60;99.90
52621;DHT22;38515;53.160;6.990;2023-07-31T14:48:07;19.30;99.90
52621;DHT22;38515;53.160;6.990;2023-07-31T14:50:33;19.40;99.90
52621;DHT22;38515;53.160;6.990;2023-07-31T14:52:59;19.30;99.90
52621;DHT22;38515;53.160;6.990;2023-07-31T14:55:25;19.30;99.90
52621;DHT22;38515;53.160;6.990;2023-07-31T14:57:51;19.10;99.90
52621;DHT22;38515;53.160;6.990;2023-07-31T15:00:17;19.20;99.90
52621;DHT22;38515;53.160;6.990;2023-07-31T15:02:43;19.00;99.90
52621;DHT22;38515;53.160;6.990;2023-07-31T15:05:11;19.00;99.90
52621;DHT22;38515;53.160;6.990;2023-07-31T15:07:37;19.10;99.90
52621;DHT22;38515;53.160;6.990;2023-07-31T15:10:04;19.40;99.90
52621;DHT22;38515;53.160;6.990;2023-07-31T15:12:36;19.30;99.90
52621;DHT22;38515;53.160;6.990;2023-07-31T15:15:04;18.90;99.90
52621;DHT22;38515;53.160;6.990;2023-07-31T15:17:30;19.10;99.90
52621;DHT22;38515;53.160;6.990;2023-07-31T15:19:56;19.10;99.90
52621;DHT22;38515;53.160;6.990;2023-07-31T15:22:22;19.00;99.90
52621;DHT22;38515;53.160;6.990;2023-07-31T15:24:48;19.10;99.90
52621;DHT22;38515;53.160;6.990;2023-07-31T15:27:15;19.10;99.90
52621;DHT22;38515;53.160;6.990;2023-07-31T15:29:41;18.80;99.90
52621;DHT22;38515;53.160;6.990;2023-07-31T15:32:07;18.90;99.90
52621;DHT22;38515;53.160;6.990;2023-07-31T15:34:33;19.00;99.90
52621;DHT22;38515;53.160;6.990;2023-07-31T15:36:59;18.70;99.90